Time;durP1;ratioP1;P1;durP2;ratioP2;P2;SDS_P1;SDS_P2;PMS_P1;PMS_P2;Temp;Humidity;BMP_temperature;BMP_pressure;BME280_temperature;BME280_humidity;BME280_pressure;Samples;Min_cycle;Max_cycle;Signal;HPM_P1;HPM_P2
2022/12/23 00:02:21;;;;;;;22.58;7.22;;;;;;;;;;4960534;28;20276;-72
2022/12/23 00:04:47;;;;;;;33.13;6.60;;;;;;;;;;4960302;28;20306;-72
2022/12/23 00:07:14;;;;;;;22.63;7.05;;;;;;;;;;5026094;28;20038;-73
2022/12/23 00:09:39;;;;;;;30.50;7.28;;;;;;;;;;4942602;28;20096;-73
2022/12/23 00:15:04;;;;;;;30.42;8.40;;;;;;;;;;4960852;28;20334;-72
2022/12/23 00:17:30;;;;;;;27.13;8.07;;;;;;;;;;4959687;28;20049;-72
2022/12/23 00:19:56;;;;;;;29.10;7.10;;;;;;;;;;4960399;28;21418;-73
2022/12/23 00:23:03;;;;;;;17.05;6.22;;;;;;;;;;4960128;28;20034;-73
2022/12/23 00:25:06;;;;;;;23.33;6.75;;;;;;;;;;4960255;28;20380;-73
2022/12/23 00:27:31;;;;;;;29.70;8.05;;;;;;;;;;4960746;28;20443;-71
2022/12/23 00:29:57;;;;;;;27.15;7.00;;;;;;;;;;5026103;28;20030;-72
2022/12/23 00:32:22;;;;;;;28.70;7.18;;;;;;;;;;4960172;28;20107;-73
2022/12/23 00:34:47;;;;;;;29.98;8.18;;;;;;;;;;4959613;28;20030;-73
2022/12/23 00:37:15;;;;;;;28.40;8.38;;;;;;;;;;4959844;28;20053;-72
2022/12/23 00:45:16;;;;;;;29.52;10.73;;;;;;;;;;4945003;28;20053;-73
2022/12/23 00:50:37;;;;;;;50.10;17.65;;;;;;;;;;4958767;28;20045;-73
2022/12/23 00:53:02;;;;;;;48.88;18.77;;;;;;;;;;4959462;28;20042;-73
2022/12/23 00:55:27;;;;;;;65.55;21.50;;;;;;;;;;4958113;28;20437;-72
2022/12/23 00:57:53;;;;;;;71.00;25.60;;;;;;;;;;4959505;28;20610;-73
2022/12/23 01:00:18;;;;;;;70.63;24.58;;;;;;;;;;4960060;28;20030;-73
2022/12/23 01:05:37;;;;;;;93.35;29.98;;;;;;;;;;4959955;28;20125;-72
2022/12/23 01:08:03;;;;;;;87.05;29.13;;;;;;;;;;4959508;28;20064;-73
2022/12/23 01:10:28;;;;;;;93.60;27.85;;;;;;;;;;4942041;28;20680;-73
2022/12/23 01:12:54;;;;;;;106.10;31.63;;;;;;;;;;4941741;28;20036;-73
2022/12/23 01:15:20;;;;;;;100.65;27.90;;;;;;;;;;4959795;28;20038;-73
2022/12/23 01:17:48;;;;;;;97.00;28.73;;;;;;;;;;4959062;28;20472;-72
2022/12/23 01:20:13;;;;;;;120.45;30.80;;;;;;;;;;4942150;28;20023;-72
2022/12/23 01:22:38;;;;;;;95.57;29.05;;;;;;;;;;4941834;28;20441;-73
2022/12/23 01:25:04;;;;;;;105.50;29.13;;;;;;;;;;4925366;28;20030;-69
2022/12/23 01:27:30;;;;;;;167.95;31.65;;;;;;;;;;4941809;28;20030;-74
2022/12/23 01:29:55;;;;;;;133.88;32.67;;;;;;;;;;4959342;28;20579;-73
2022/12/23 01:32:20;;;;;;;120.72;30.35;;;;;;;;;;4959254;28;20520;-73
2022/12/23 01:34:45;;;;;;;115.13;29.17;;;;;;;;;;4961145;28;20027;-73
2022/12/23 01:37:13;;;;;;;121.00;30.55;;;;;;;;;;4941455;28;20057;-74
2022/12/23 01:39:38;;;;;;;104.90;29.27;;;;;;;;;;4961362;28;20043;-73
2022/12/23 01:44:56;;;;;;;115.07;32.80;;;;;;;;;;4959697;28;20137;-74
2022/12/23 01:47:42;;;;;;;94.47;30.77;;;;;;;;;;4955558;28;20464;-72
2022/12/23 01:50:16;;;;;;;110.57;31.55;;;;;;;;;;4959925;28;20339;-73
2022/12/23 01:52:55;;;;;;;125.55;32.53;;;;;;;;;;4960872;28;20061;-73
2022/12/23 01:55:22;;;;;;;99.68;29.27;;;;;;;;;;4939480;28;20055;-72
2022/12/23 01:57:48;;;;;;;92.82;29.65;;;;;;;;;;4938108;28;20116;-74
2022/12/23 02:05:44;;;;;;;94.90;29.08;;;;;;;;;;4940804;28;20031;-73
2022/12/23 02:10:55;;;;;;;89.07;27.42;;;;;;;;;;4942636;28;20444;-73
2022/12/23 02:13:27;;;;;;;104.18;32.20;;;;;;;;;;4942829;28;20208;-73
2022/12/23 02:16:17;;;;;;;110.15;32.03;;;;;;;;;;4942761;28;20834;-74
2022/12/23 02:18:45;;;;;;;93.90;28.42;;;;;;;;;;4943224;28;20030;-75
2022/12/23 02:21:13;;;;;;;109.55;31.27;;;;;;;;;;4942353;28;20035;-73
2022/12/23 02:23:41;;;;;;;88.55;28.70;;;;;;;;;;4925749;28;20651;-73
2022/12/23 02:26:25;;;;;;;116.70;31.00;;;;;;;;;;4924635;28;20557;-73
2022/12/23 02:28:50;;;;;;;105.30;30.52;;;;;;;;;;4925199;28;20054;-73
2022/12/23 02:31:15;;;;;;;109.10;29.23;;;;;;;;;;4942949;28;20039;-73
2022/12/23 02:34:19;;;;;;;117.72;30.58;;;;;;;;;;4961170;28;20204;-73
2022/12/23 02:36:53;;;;;;;116.68;31.13;;;;;;;;;;4980693;28;20696;-74
2022/12/23 02:39:23;;;;;;;126.30;31.98;;;;;;;;;;4981530;28;20041;-73
2022/12/23 02:41:53;;;;;;;137.82;32.28;;;;;;;;;;4970136;28;20030;-74
2022/12/23 02:44:27;;;;;;;130.02;33.13;;;;;;;;;;4961836;28;20034;-73
2022/12/23 02:46:58;;;;;;;132.02;33.60;;;;;;;;;;4961420;28;20443;-73
2022/12/23 02:49:32;;;;;;;150.77;33.47;;;;;;;;;;4961303;28;20492;-73
2022/12/23 02:51:59;;;;;;;123.88;32.05;;;;;;;;;;4960777;28;20037;-73
2022/12/23 02:54:29;;;;;;;148.07;33.30;;;;;;;;;;4943465;28;20287;-73
2022/12/23 02:56:56;;;;;;;151.90;34.20;;;;;;;;;;4960868;28;20096;-73
2022/12/23 02:59:26;;;;;;;142.82;35.10;;;;;;;;;;4960918;28;20833;-73
2022/12/23 03:01:52;;;;;;;152.05;34.80;;;;;;;;;;4960815;28;20298;-73
2022/12/23 03:04:18;;;;;;;141.40;34.97;;;;;;;;;;5028130;28;20049;-72
2022/12/23 03:06:48;;;;;;;150.48;35.22;;;;;;;;;;4960740;28;20085;-73
2022/12/23 03:09:22;;;;;;;139.73;34.78;;;;;;;;;;4943050;28;20034;-73
2022/12/23 03:11:53;;;;;;;135.15;36.20;;;;;;;;;;4960716;28;20508;-72
2022/12/23 03:14:29;;;;;;;109.70;31.95;;;;;;;;;;4961183;28;20479;-73
2022/12/23 03:16:54;;;;;;;114.85;32.28;;;;;;;;;;4959269;28;20665;-73
2022/12/23 03:19:30;;;;;;;124.18;32.17;;;;;;;;;;4943108;28;20041;-73
2022/12/23 03:22:05;;;;;;;109.80;31.70;;;;;;;;;;4943293;28;20523;-72
2022/12/23 03:24:33;;;;;;;103.75;30.90;;;;;;;;;;4960819;28;20134;-73
2022/12/23 03:27:01;;;;;;;123.43;33.67;;;;;;;;;;4960330;28;20026;-72
2022/12/23 03:29:35;;;;;;;114.50;31.15;;;;;;;;;;4960792;28;20044;-73
2022/12/23 03:32:02;;;;;;;108.97;32.30;;;;;;;;;;4961171;28;20030;-74
2022/12/23 03:34:29;;;;;;;97.03;29.92;;;;;;;;;;4960765;28;20047;-71
2022/12/23 03:36:56;;;;;;;91.93;29.95;;;;;;;;;;4961479;28;20125;-73
2022/12/23 03:39:24;;;;;;;95.15;29.27;;;;;;;;;;4942745;28;20038;-74
2022/12/23 03:41:59;;;;;;;91.63;29.98;;;;;;;;;;4960576;28;20783;-71
2022/12/23 03:44:33;;;;;;;108.50;31.10;;;;;;;;;;4960606;28;20214;-74
2022/12/23 03:47:09;;;;;;;83.75;28.17;;;;;;;;;;4960370;28;20277;-73
2022/12/23 03:49:40;;;;;;;89.45;25.40;;;;;;;;;;4960053;28;20237;-72
2022/12/23 03:52:18;;;;;;;108.57;28.48;;;;;;;;;;4943194;28;20389;-73
2022/12/23 03:54:50;;;;;;;184.10;31.25;;;;;;;;;;4960162;28;20386;-73
2022/12/23 03:57:18;;;;;;;144.60;30.77;;;;;;;;;;4942905;28;20072;-71
2022/12/23 03:59:49;;;;;;;193.13;31.95;;;;;;;;;;4959892;28;20046;-72
2022/12/23 04:02:31;;;;;;;150.20;27.35;;;;;;;;;;4942690;28;20037;-72
2022/12/23 04:05:02;;;;;;;168.80;28.02;;;;;;;;;;4960123;28;20035;-72
2022/12/23 04:07:37;;;;;;;157.13;27.40;;;;;;;;;;4960049;28;20045;-72
2022/12/23 04:10:03;;;;;;;154.43;26.42;;;;;;;;;;4959927;28;20031;-72
2022/12/23 04:12:29;;;;;;;152.95;27.33;;;;;;;;;;4959193;28;20045;-71
2022/12/23 04:14:56;;;;;;;160.43;25.20;;;;;;;;;;5026492;28;20030;-71
2022/12/23 04:17:22;;;;;;;167.98;26.08;;;;;;;;;;4942018;28;20552;-71
2022/12/23 04:19:47;;;;;;;157.40;26.15;;;;;;;;;;4942956;28;20030;-73
2022/12/23 04:22:16;;;;;;;132.55;24.38;;;;;;;;;;4959949;28;20049;-72
2022/12/23 04:24:43;;;;;;;128.68;22.67;;;;;;;;;;4943087;28;20038;-72
2022/12/23 04:27:11;;;;;;;108.53;22.55;;;;;;;;;;4942194;28;20121;-72
2022/12/23 04:29:37;;;;;;;144.98;23.13;;;;;;;;;;4959467;28;20100;-70
2022/12/23 04:32:02;;;;;;;142.10;24.05;;;;;;;;;;4942934;28;20779;-72
2022/12/23 04:34:30;;;;;;;125.28;21.33;;;;;;;;;;4959941;28;20204;-72
2022/12/23 04:36:56;;;;;;;145.48;22.83;;;;;;;;;;4960092;28;20223;-71
2022/12/23 04:39:21;;;;;;;128.25;21.85;;;;;;;;;;4959742;28;20046;-72
2022/12/23 04:41:47;;;;;;;273.65;24.27;;;;;;;;;;4943123;28;20062;-72
2022/12/23 04:44:15;;;;;;;146.80;21.30;;;;;;;;;;4959907;28;20619;-72
2022/12/23 04:46:43;;;;;;;180.70;21.73;;;;;;;;;;4956151;28;20483;-71
2022/12/23 04:49:11;;;;;;;196.88;24.90;;;;;;;;;;5026043;28;20042;-73
2022/12/23 04:51:36;;;;;;;132.95;24.10;;;;;;;;;;4941940;28;20047;-71
2022/12/23 04:54:02;;;;;;;108.60;22.60;;;;;;;;;;4960165;28;20031;-71
2022/12/23 04:56:27;;;;;;;175.68;23.85;;;;;;;;;;5025835;28;20043;-71
2022/12/23 04:58:52;;;;;;;168.57;24.70;;;;;;;;;;5025728;28;20039;-71
2022/12/23 05:01:18;;;;;;;151.02;25.08;;;;;;;;;;4959566;28;20111;-71
2022/12/23 05:03:45;;;;;;;126.30;23.50;;;;;;;;;;4959049;28;20313;-71
2022/12/23 05:06:11;;;;;;;159.35;23.92;;;;;;;;;;5024003;28;20214;-72
2022/12/23 05:08:36;;;;;;;115.75;21.73;;;;;;;;;;4959937;28;20027;-72
2022/12/23 05:11:02;;;;;;;105.72;20.30;;;;;;;;;;4959313;28;20138;-71
2022/12/23 05:13:28;;;;;;;120.32;20.52;;;;;;;;;;4959528;28;20026;-72
2022/12/23 05:15:54;;;;;;;117.75;20.20;;;;;;;;;;5025334;28;20432;-72
2022/12/23 05:18:19;;;;;;;92.05;19.75;;;;;;;;;;4950102;28;20043;-72
2022/12/23 05:20:45;;;;;;;116.00;19.33;;;;;;;;;;4957295;28;20042;-71
2022/12/23 05:23:15;;;;;;;81.40;17.48;;;;;;;;;;4959806;28;20034;-73
2022/12/23 05:25:40;;;;;;;56.33;15.55;;;;;;;;;;4957380;28;20259;-73
2022/12/23 05:28:06;;;;;;;51.40;15.32;;;;;;;;;;5025946;28;20530;-72
2022/12/23 05:30:32;;;;;;;70.85;16.42;;;;;;;;;;4940981;28;20030;-72
2022/12/23 05:32:57;;;;;;;76.05;17.48;;;;;;;;;;4959423;28;20027;-72
2022/12/23 05:35:24;;;;;;;75.35;18.02;;;;;;;;;;4941048;28;20041;-73
2022/12/23 05:37:49;;;;;;;77.35;18.48;;;;;;;;;;4959217;28;20040;-72
2022/12/23 05:40:14;;;;;;;96.45;18.90;;;;;;;;;;4957383;28;20038;-71
2022/12/23 05:42:40;;;;;;;40.67;12.93;;;;;;;;;;4959311;28;20058;-71
2022/12/23 05:45:05;;;;;;;63.50;16.25;;;;;;;;;;4959055;28;20050;-71
2022/12/23 05:47:33;;;;;;;66.97;17.73;;;;;;;;;;4958619;28;20532;-71
2022/12/23 05:49:59;;;;;;;81.32;18.23;;;;;;;;;;4958920;28;20037;-71
2022/12/23 05:52:24;;;;;;;98.50;18.60;;;;;;;;;;4959400;28;20047;-71
2022/12/23 05:54:50;;;;;;;75.43;17.70;;;;;;;;;;4958444;28;20038;-72
2022/12/23 05:57:15;;;;;;;70.85;18.75;;;;;;;;;;4958262;28;20042;-72
2022/12/23 05:59:40;;;;;;;75.95;20.02;;;;;;;;;;4958386;28;20043;-71
2022/12/23 06:02:08;;;;;;;103.88;21.67;;;;;;;;;;4958406;28;20550;-70
2022/12/23 06:04:33;;;;;;;80.10;21.73;;;;;;;;;;4958609;28;20057;-72
2022/12/23 06:07:00;;;;;;;109.88;23.45;;;;;;;;;;4958072;28;20188;-71
2022/12/23 06:09:26;;;;;;;106.60;24.27;;;;;;;;;;4958440;28;20568;-72
2022/12/23 06:11:51;;;;;;;107.30;23.20;;;;;;;;;;4958016;28;20065;-71
2022/12/23 06:14:17;;;;;;;83.30;23.17;;;;;;;;;;4925335;28;20481;-72
2022/12/23 06:16:42;;;;;;;79.28;21.45;;;;;;;;;;4941349;28;20046;-72
2022/12/23 06:19:08;;;;;;;60.05;20.40;;;;;;;;;;4940809;28;20038;-72
2022/12/23 06:21:33;;;;;;;73.45;21.23;;;;;;;;;;4958325;28;20038;-71
2022/12/23 06:23:58;;;;;;;72.20;22.00;;;;;;;;;;4957494;28;20184;-72
2022/12/23 06:26:26;;;;;;;52.60;17.20;;;;;;;;;;4958220;28;20038;-71
2022/12/23 06:28:51;;;;;;;47.38;14.65;;;;;;;;;;4958595;28;20278;-72
2022/12/23 06:31:17;;;;;;;41.00;13.60;;;;;;;;;;4958595;28;20042;-71
2022/12/23 06:33:42;;;;;;;36.47;13.00;;;;;;;;;;4957865;28;20558;-71
2022/12/23 06:36:08;;;;;;;48.78;14.63;;;;;;;;;;4958844;28;20049;-71
2022/12/23 06:38:33;;;;;;;42.60;14.00;;;;;;;;;;4924685;28;20104;-72
2022/12/23 06:41:01;;;;;;;51.28;15.32;;;;;;;;;;4941142;28;20045;-71
2022/12/23 06:43:26;;;;;;;55.75;15.93;;;;;;;;;;4940903;28;20679;-71
2022/12/23 06:45:52;;;;;;;51.75;16.00;;;;;;;;;;4958279;28;20075;-72
2022/12/23 06:48:17;;;;;;;55.90;15.13;;;;;;;;;;4957594;28;20473;-71
2022/12/23 06:50:43;;;;;;;51.60;16.23;;;;;;;;;;4958864;28;20452;-72
2022/12/23 06:53:11;;;;;;;45.85;13.85;;;;;;;;;;4961351;28;20358;-73
2022/12/23 06:55:36;;;;;;;35.10;11.35;;;;;;;;;;4960988;28;20045;-73
2022/12/23 06:58:02;;;;;;;31.05;11.57;;;;;;;;;;4960691;28;20069;-72
2022/12/23 07:00:27;;;;;;;46.65;11.85;;;;;;;;;;4943444;28;20440;-73
2022/12/23 07:02:52;;;;;;;41.22;11.73;;;;;;;;;;4943467;28;20030;-73
2022/12/23 07:05:18;;;;;;;44.80;11.95;;;;;;;;;;4961399;28;20054;-73
2022/12/23 07:07:43;;;;;;;37.60;11.70;;;;;;;;;;4960888;28;20113;-72
2022/12/23 07:10:09;;;;;;;29.85;11.07;;;;;;;;;;4943791;28;20590;-73
2022/12/23 07:12:34;;;;;;;34.17;10.70;;;;;;;;;;4943551;28;20083;-71
2022/12/23 07:15:02;;;;;;;40.22;10.38;;;;;;;;;;4961059;28;20213;-71
2022/12/23 07:17:27;;;;;;;36.75;10.02;;;;;;;;;;4960498;28;20042;-73
2022/12/23 07:19:53;;;;;;;26.73;9.73;;;;;;;;;;4943382;28;20042;-72
2022/12/23 07:22:18;;;;;;;22.52;9.20;;;;;;;;;;4942772;28;20560;-72
2022/12/23 07:24:46;;;;;;;20.20;8.73;;;;;;;;;;4961125;28;20257;-72
2022/12/23 07:27:11;;;;;;;17.45;8.55;;;;;;;;;;4943045;28;20560;-72
2022/12/23 07:29:36;;;;;;;31.33;17.45;;;;;;;;;;4961209;28;20095;-72
2022/12/23 07:32:01;;;;;;;38.47;20.20;;;;;;;;;;4960259;28;20531;-72
2022/12/23 07:34:27;;;;;;;36.28;20.92;;;;;;;;;;4961264;28;20026;-72
2022/12/23 07:36:52;;;;;;;55.10;29.55;;;;;;;;;;4960649;28;20543;-72
2022/12/23 07:39:18;;;;;;;61.58;31.80;;;;;;;;;;4943728;28;20038;-73
2022/12/23 07:41:44;;;;;;;60.70;32.92;;;;;;;;;;4960717;28;20278;-72
2022/12/23 07:44:11;;;;;;;58.63;31.02;;;;;;;;;;4943554;28;20315;-72
2022/12/23 07:46:37;;;;;;;69.60;31.55;;;;;;;;;;4942120;28;20294;-72
2022/12/23 07:49:02;;;;;;;61.47;30.58;;;;;;;;;;4943409;28;20467;-73
2022/12/23 07:51:27;;;;;;;58.10;31.90;;;;;;;;;;4960040;28;20110;-72
2022/12/23 07:53:52;;;;;;;67.00;32.85;;;;;;;;;;4960614;28;20578;-73
2022/12/23 07:56:18;;;;;;;48.58;26.08;;;;;;;;;;4960137;28;20348;-72
2022/12/23 07:58:47;;;;;;;43.15;23.48;;;;;;;;;;4960211;28;20031;-72
2022/12/23 08:01:12;;;;;;;37.80;20.30;;;;;;;;;;4958423;28;20070;-72
2022/12/23 08:03:39;;;;;;;50.30;23.55;;;;;;;;;;4941840;28;20198;-71
2022/12/23 08:06:06;;;;;;;53.00;23.88;;;;;;;;;;4960663;28;20665;-72
2022/12/23 08:08:32;;;;;;;54.53;25.38;;;;;;;;;;4959341;28;20088;-73
2022/12/23 08:10:58;;;;;;;51.50;25.73;;;;;;;;;;4960165;28;20843;-72
2022/12/23 08:13:27;;;;;;;51.00;25.80;;;;;;;;;;4960156;28;20569;-72
2022/12/23 08:15:53;;;;;;;54.28;25.60;;;;;;;;;;4960179;28;20056;-72
2022/12/23 08:18:19;;;;;;;54.83;24.23;;;;;;;;;;4959636;28;20492;-72
2022/12/23 08:20:51;;;;;;;60.45;21.90;;;;;;;;;;4960129;28;20038;-72
2022/12/23 08:23:17;;;;;;;68.05;22.45;;;;;;;;;;4959250;28;20033;-73
2022/12/23 08:25:42;;;;;;;68.00;22.63;;;;;;;;;;4960238;28;20438;-73
2022/12/23 08:28:08;;;;;;;64.13;22.52;;;;;;;;;;4960340;28;20476;-73
2022/12/23 08:30:33;;;;;;;71.20;22.85;;;;;;;;;;4960238;28;20480;-73
2022/12/23 08:32:59;;;;;;;62.85;22.35;;;;;;;;;;4942253;28;20422;-73
2022/12/23 08:35:26;;;;;;;70.32;22.42;;;;;;;;;;4959993;28;20261;-71
2022/12/23 08:37:52;;;;;;;70.65;22.85;;;;;;;;;;4942365;28;20453;-72
2022/12/23 08:40:19;;;;;;;77.88;23.55;;;;;;;;;;4960537;28;20068;-73
2022/12/23 08:42:47;;;;;;;63.28;25.73;;;;;;;;;;4959999;28;20562;-73
2022/12/23 08:45:12;;;;;;;58.70;25.77;;;;;;;;;;4959107;28;20042;-73
2022/12/23 08:47:37;;;;;;;59.20;22.10;;;;;;;;;;4959643;28;20121;-72
2022/12/23 08:50:03;;;;;;;62.40;25.10;;;;;;;;;;4941946;28;20053;-72
2022/12/23 08:52:31;;;;;;;62.53;23.92;;;;;;;;;;4942444;28;20195;-72
2022/12/23 08:54:56;;;;;;;64.18;25.52;;;;;;;;;;4926361;28;20034;-72
2022/12/23 08:57:22;;;;;;;68.78;26.02;;;;;;;;;;4942868;28;20073;-72
2022/12/23 08:59:50;;;;;;;74.28;28.02;;;;;;;;;;4958888;28;20574;-73
2022/12/23 09:02:15;;;;;;;82.05;28.27;;;;;;;;;;4942046;28;20042;-73
2022/12/23 09:04:43;;;;;;;76.82;27.75;;;;;;;;;;4922558;28;20075;-73
2022/12/23 09:07:09;;;;;;;83.95;29.67;;;;;;;;;;4938669;28;20040;-72
2022/12/23 09:09:35;;;;;;;83.97;27.77;;;;;;;;;;4941047;28;20050;-73
2022/12/23 09:12:03;;;;;;;85.60;26.67;;;;;;;;;;4922206;28;20062;-72
2022/12/23 09:14:28;;;;;;;85.88;26.52;;;;;;;;;;4940417;28;20027;-72
2022/12/23 09:16:57;;;;;;;81.97;26.60;;;;;;;;;;4938780;28;20136;-73
2022/12/23 09:19:22;;;;;;;81.45;26.77;;;;;;;;;;4940464;28;20043;-73
2022/12/23 09:21:47;;;;;;;100.25;26.83;;;;;;;;;;4940160;28;20035;-72
2022/12/23 09:24:13;;;;;;;92.03;26.38;;;;;;;;;;4939544;28;20672;-73
2022/12/23 09:26:38;;;;;;;85.80;24.00;;;;;;;;;;4922633;28;20031;-73
2022/12/23 09:29:05;;;;;;;93.13;23.73;;;;;;;;;;4923945;28;20495;-73
2022/12/23 09:31:31;;;;;;;99.40;25.05;;;;;;;;;;4923193;28;20031;-73
2022/12/23 09:33:56;;;;;;;105.65;32.38;;;;;;;;;;4942224;28;20108;-73
2022/12/23 09:36:22;;;;;;;97.68;27.63;;;;;;;;;;4941863;28;20035;-72
2022/12/23 09:38:52;;;;;;;117.18;30.95;;;;;;;;;;4923731;28;20035;-73
2022/12/23 09:41:21;;;;;;;91.10;26.30;;;;;;;;;;4941759;28;20055;-73
2022/12/23 09:43:55;;;;;;;117.50;32.60;;;;;;;;;;4922709;28;20045;-74
2022/12/23 09:46:21;;;;;;;141.25;34.38;;;;;;;;;;4941208;28;20653;-73
2022/12/23 09:49:07;;;;;;;119.40;31.58;;;;;;;;;;4940196;28;20031;-73
2022/12/23 09:51:35;;;;;;;118.32;29.98;;;;;;;;;;4938313;28;20035;-73
2022/12/23 09:54:20;;;;;;;127.13;30.98;;;;;;;;;;4922357;28;20387;-72
2022/12/23 09:56:48;;;;;;;129.50;34.00;;;;;;;;;;4922146;28;20164;-73
2022/12/23 09:59:31;;;;;;;114.95;32.35;;;;;;;;;;4939635;28;20039;-74
2022/12/23 10:02:12;;;;;;;142.90;35.47;;;;;;;;;;4922657;28;20487;-74
2022/12/23 10:04:45;;;;;;;175.90;34.92;;;;;;;;;;4937985;28;20438;-73
2022/12/23 10:07:18;;;;;;;144.32;31.88;;;;;;;;;;4959229;28;20039;-73
2022/12/23 10:09:44;;;;;;;160.90;32.25;;;;;;;;;;4958999;28;20039;-74
2022/12/23 10:12:28;;;;;;;186.60;33.00;;;;;;;;;;4958536;28;20115;-71
2022/12/23 10:14:55;;;;;;;211.98;34.33;;;;;;;;;;4957064;28;20417;-74
2022/12/23 10:17:25;;;;;;;181.65;32.33;;;;;;;;;;4959045;28;20480;-75
2022/12/23 10:19:52;;;;;;;258.85;49.80;;;;;;;;;;4958347;28;20235;-74
2022/12/23 10:22:23;;;;;;;269.98;35.72;;;;;;;;;;4960830;28;20035;-74
2022/12/23 10:24:48;;;;;;;217.90;31.17;;;;;;;;;;4960105;28;20083;-74
2022/12/23 10:27:14;;;;;;;264.50;35.22;;;;;;;;;;4963071;28;20055;-73
2022/12/23 10:29:42;;;;;;;216.18;34.97;;;;;;;;;;4944234;28;20183;-76
2022/12/23 10:32:16;;;;;;;268.65;36.47;;;;;;;;;;4945323;28;20121;-72
2022/12/23 10:34:50;;;;;;;202.10;35.03;;;;;;;;;;4963673;28;20444;-73
2022/12/23 10:37:34;;;;;;;172.25;43.00;;;;;;;;;;4964205;28;20434;-74
2022/12/23 10:40:00;;;;;;;165.27;37.00;;;;;;;;;;4963741;28;20140;-75
2022/12/23 10:42:50;;;;;;;215.55;39.28;;;;;;;;;;4963890;28;20046;-73
2022/12/23 10:45:24;;;;;;;192.43;43.40;;;;;;;;;;4964266;28;20045;-74
2022/12/23 10:47:55;;;;;;;229.95;47.05;;;;;;;;;;4961941;28;20034;-74
2022/12/23 10:50:27;;;;;;;194.57;43.75;;;;;;;;;;4962002;28;20590;-73
2022/12/23 10:52:55;;;;;;;196.07;41.45;;;;;;;;;;4961807;28;20030;-74
2022/12/23 10:55:26;;;;;;;225.48;43.92;;;;;;;;;;4960974;28;20175;-73
2022/12/23 10:57:51;;;;;;;210.02;43.13;;;;;;;;;;4959905;28;20634;-74
2022/12/23 11:00:23;;;;;;;245.48;46.35;;;;;;;;;;4962318;28;20092;-75
2022/12/23 11:02:54;;;;;;;198.65;41.22;;;;;;;;;;4960130;28;20031;-74
2022/12/23 11:05:23;;;;;;;235.70;44.65;;;;;;;;;;4961192;28;20115;-72
2022/12/23 11:07:50;;;;;;;235.38;43.88;;;;;;;;;;4943594;28;20536;-73
2022/12/23 11:10:20;;;;;;;189.70;41.60;;;;;;;;;;4961036;28;20442;-74
2022/12/23 11:12:48;;;;;;;253.27;44.00;;;;;;;;;;4965484;28;20537;-74
2022/12/23 11:15:33;;;;;;;202.45;43.25;;;;;;;;;;4959284;28;20030;-72
2022/12/23 11:18:02;;;;;;;209.43;43.58;;;;;;;;;;4960636;28;20416;-74
2022/12/23 11:20:28;;;;;;;214.38;45.88;;;;;;;;;;4960992;28;20655;-74
2022/12/23 11:23:00;;;;;;;216.38;44.63;;;;;;;;;;4943284;28;20034;-73
2022/12/23 11:25:26;;;;;;;168.20;44.13;;;;;;;;;;4961628;28;20026;-74
2022/12/23 11:28:11;;;;;;;197.77;45.63;;;;;;;;;;4961640;28;20111;-72
2022/12/23 11:30:47;;;;;;;170.05;42.97;;;;;;;;;;4960793;28;20062;-74
2022/12/23 11:33:32;;;;;;;175.52;40.05;;;;;;;;;;4958526;28;20039;-73
2022/12/23 11:36:12;;;;;;;152.98;40.45;;;;;;;;;;4960899;28;20125;-73
2022/12/23 11:38:49;;;;;;;157.02;41.78;;;;;;;;;;4959401;28;20023;-73
2022/12/23 11:41:18;;;;;;;135.85;38.70;;;;;;;;;;4960878;28;20034;-74
2022/12/23 11:43:46;;;;;;;158.52;41.63;;;;;;;;;;4960709;28;20143;-74
2022/12/23 11:46:17;;;;;;;147.32;38.78;;;;;;;;;;4960573;28;20038;-71
2022/12/23 11:48:42;;;;;;;150.05;38.55;;;;;;;;;;4959110;28;20112;-72
2022/12/23 11:51:07;;;;;;;141.70;36.50;;;;;;;;;;4961351;28;20442;-73
2022/12/23 11:53:33;;;;;;;134.95;37.03;;;;;;;;;;4960441;28;20393;-73
2022/12/23 11:56:04;;;;;;;104.22;31.90;;;;;;;;;;4959988;28;20042;-71
2022/12/23 11:58:33;;;;;;;120.18;33.20;;;;;;;;;;4960628;28;20026;-72
2022/12/23 12:00:59;;;;;;;128.05;33.58;;;;;;;;;;4959783;28;20027;-71
2022/12/23 12:03:27;;;;;;;127.50;36.00;;;;;;;;;;4960831;28;20054;-72
2022/12/23 12:05:58;;;;;;;112.03;32.22;;;;;;;;;;4959718;28;20062;-72
2022/12/23 12:08:28;;;;;;;108.68;34.58;;;;;;;;;;4960092;28;20065;-72
2022/12/23 12:11:01;;;;;;;94.18;32.50;;;;;;;;;;4959989;28;20786;-71
2022/12/23 12:13:26;;;;;;;89.82;34.22;;;;;;;;;;4959876;28;20026;-71
2022/12/23 12:16:06;;;;;;;94.22;32.67;;;;;;;;;;4959742;28;20124;-70
2022/12/23 12:18:32;;;;;;;85.40;29.02;;;;;;;;;;4960403;28;20026;-72
2022/12/23 12:21:03;;;;;;;75.70;28.92;;;;;;;;;;4959898;28;20746;-70
2022/12/23 12:23:40;;;;;;;77.43;28.27;;;;;;;;;;4960134;28;20119;-71
2022/12/23 12:26:12;;;;;;;82.20;31.23;;;;;;;;;;4960452;28;20038;-72
2022/12/23 12:28:39;;;;;;;92.10;35.08;;;;;;;;;;4960501;28;20381;-73
2022/12/23 12:31:13;;;;;;;79.57;31.05;;;;;;;;;;4960149;28;20104;-72
2022/12/23 12:34:03;;;;;;;73.03;28.98;;;;;;;;;;5026699;28;20675;-73
2022/12/23 12:36:38;;;;;;;76.75;29.27;;;;;;;;;;4930219;28;20454;-72
2022/12/23 12:39:04;;;;;;;69.07;27.95;;;;;;;;;;4960327;28;20042;-72
2022/12/23 12:41:34;;;;;;;73.07;29.02;;;;;;;;;;4960506;28;20408;-71
2022/12/23 12:44:06;;;;;;;67.03;26.67;;;;;;;;;;4960557;28;20107;-72
2022/12/23 12:46:31;;;;;;;;;;;;;;;;;;4960836;28;20760;-73
2022/12/23 12:49:04;;;;;;;87.13;32.30;;;;;;;;;;4942852;28;20317;-72
2022/12/23 12:51:46;;;;;;;71.65;30.08;;;;;;;;;;4959466;28;20026;-72
2022/12/23 12:54:14;;;;;;;68.10;27.73;;;;;;;;;;4959497;28;20043;-72
2022/12/23 12:56:47;;;;;;;65.65;27.20;;;;;;;;;;4958227;28;20517;-72
2022/12/23 12:59:15;;;;;;;69.32;26.08;;;;;;;;;;4959567;28;20117;-71
2022/12/23 13:01:59;;;;;;;70.22;25.98;;;;;;;;;;4959719;28;20100;-70
2022/12/23 13:04:27;;;;;;;67.65;26.52;;;;;;;;;;4959086;28;20848;-72
2022/12/23 13:06:58;;;;;;;60.83;25.70;;;;;;;;;;4959160;28;20045;-71
2022/12/23 13:09:23;;;;;;;74.80;26.57;;;;;;;;;;4959530;28;20393;-71
2022/12/23 13:11:54;;;;;;;66.85;28.92;;;;;;;;;;4960108;28;20270;-72
2022/12/23 13:14:38;;;;;;;77.32;30.63;;;;;;;;;;4942203;28;20217;-71
2022/12/23 13:17:23;;;;;;;68.05;27.48;;;;;;;;;;4959494;28;20119;-72
2022/12/23 13:19:54;;;;;;;68.53;27.77;;;;;;;;;;4941864;28;20049;-71
2022/12/23 13:22:38;;;;;;;69.23;29.67;;;;;;;;;;4960027;28;20054;-72
2022/12/23 13:25:12;;;;;;;68.57;26.95;;;;;;;;;;4958914;28;20618;-71
2022/12/23 13:27:53;;;;;;;75.95;27.85;;;;;;;;;;4941993;28;20499;-72
2022/12/23 13:30:20;;;;;;;86.93;35.67;;;;;;;;;;4959680;28;20680;-71
2022/12/23 13:32:46;;;;;;;89.13;32.75;;;;;;;;;;4959718;28;20686;-71
2022/12/23 13:35:11;;;;;;;88.07;34.30;;;;;;;;;;4959333;28;20623;-71
2022/12/23 13:37:42;;;;;;;89.50;33.60;;;;;;;;;;4959292;28;20457;-69
2022/12/23 13:40:25;;;;;;;91.65;34.30;;;;;;;;;;4958666;28;20069;-70
2022/12/23 13:42:53;;;;;;;94.03;41.20;;;;;;;;;;4959799;28;20127;-70
2022/12/23 13:45:20;;;;;;;86.35;36.70;;;;;;;;;;4958391;28;20038;-71
2022/12/23 13:47:55;;;;;;;85.70;33.92;;;;;;;;;;4958933;28;20484;-70
2022/12/23 13:50:23;;;;;;;83.63;31.08;;;;;;;;;;4958996;28;20567;-71
2022/12/23 13:52:48;;;;;;;73.10;29.23;;;;;;;;;;4959084;28;20026;-71
2022/12/23 13:55:28;;;;;;;70.55;26.52;;;;;;;;;;4941088;28;20594;-70
2022/12/23 13:57:57;;;;;;;68.88;25.73;;;;;;;;;;4940325;28;20057;-71
2022/12/23 14:00:24;;;;;;;65.55;24.98;;;;;;;;;;4940027;28;20220;-71
2022/12/23 14:02:50;;;;;;;74.43;26.38;;;;;;;;;;4957454;28;20042;-71
2022/12/23 14:05:26;;;;;;;61.97;24.85;;;;;;;;;;4957100;28;20750;-70
2022/12/23 14:07:54;;;;;;;78.00;25.35;;;;;;;;;;4958231;28;20043;-72
2022/12/23 14:10:21;;;;;;;61.65;25.15;;;;;;;;;;4943849;28;20042;-71
2022/12/23 14:12:49;;;;;;;71.97;26.27;;;;;;;;;;4943732;28;20715;-70
2022/12/23 14:15:16;;;;;;;74.68;25.92;;;;;;;;;;4944301;28;20042;-71
2022/12/23 14:17:51;;;;;;;74.07;26.15;;;;;;;;;;4944378;28;20591;-70
2022/12/23 14:20:20;;;;;;;67.20;24.88;;;;;;;;;;4962457;28;20127;-71
2022/12/23 14:23:04;;;;;;;81.22;25.02;;;;;;;;;;4962007;28;20839;-71
2022/12/23 14:25:48;;;;;;;66.00;24.58;;;;;;;;;;4962580;28;20121;-71
2022/12/23 14:28:22;;;;;;;72.53;27.13;;;;;;;;;;4962574;28;20788;-71
2022/12/23 14:30:48;;;;;;;80.68;26.58;;;;;;;;;;4962234;28;20544;-71
2022/12/23 14:33:29;;;;;;;71.07;24.40;;;;;;;;;;4944121;28;20058;-71
2022/12/23 14:35:56;;;;;;;72.65;26.52;;;;;;;;;;4948001;28;20498;-71
2022/12/23 14:38:26;;;;;;;76.97;26.95;;;;;;;;;;4943932;28;20145;-70
2022/12/23 14:41:01;;;;;;;62.95;25.20;;;;;;;;;;4962324;28;20030;-70
2022/12/23 14:43:45;;;;;;;63.47;24.98;;;;;;;;;;4961939;28;20262;-71
2022/12/23 14:46:45;;;;;;;70.55;26.15;;;;;;;;;;4961500;28;20377;-71
2022/12/23 14:49:12;;;;;;;69.05;27.10;;;;;;;;;;4961286;28;20030;-70
2022/12/23 14:51:42;;;;;;;79.85;30.42;;;;;;;;;;4961277;28;20075;-70